sensor_id;sensor_type;location;lat;lon;timestamp;P1;durP1;ratioP1;P2;durP2;ratioP2
20445;SDS011;10382;49.140;9.234;2022-08-19T00:00:32;26.90;;;14.20;;
20445;SDS011;10382;49.140;9.234;2022-08-19T00:02:59;20.83;;;14.20;;
20445;SDS011;10382;49.140;9.234;2022-08-19T00:05:26;21.80;;;13.03;;
20445;SDS011;10382;49.140;9.234;2022-08-19T00:07:53;20.07;;;13.67;;
20445;SDS011;10382;49.140;9.234;2022-08-19T00:10:21;18.90;;;14.23;;
20445;SDS011;10382;49.140;9.234;2022-08-19T00:12:49;20.73;;;14.00;;
20445;SDS011;10382;49.140;9.234;2022-08-19T00:15:16;21.40;;;14.17;;
20445;SDS011;10382;49.140;9.234;2022-08-19T00:17:45;25.33;;;15.03;;
20445;SDS011;10382;49.140;9.234;2022-08-19T00:20:13;19.57;;;13.93;;
20445;SDS011;10382;49.140;9.234;2022-08-19T00:22:43;17.17;;;13.43;;
20445;SDS011;10382;49.140;9.234;2022-08-19T00:25:11;22.60;;;14.93;;
20445;SDS011;10382;49.140;9.234;2022-08-19T00:27:40;18.63;;;14.40;;
20445;SDS011;10382;49.140;9.234;2022-08-19T00:30:07;22.60;;;14.57;;
20445;SDS011;10382;49.140;9.234;2022-08-19T00:32:35;20.70;;;14.10;;
20445;SDS011;10382;49.140;9.234;2022-08-19T00:35:03;19.57;;;13.90;;
20445;SDS011;10382;49.140;9.234;2022-08-19T00:37:30;18.30;;;13.50;;
20445;SDS011;10382;49.140;9.234;2022-08-19T00:39:58;20.17;;;15.37;;
20445;SDS011;10382;49.140;9.234;2022-08-19T00:42:24;21.30;;;14.90;;
20445;SDS011;10382;49.140;9.234;2022-08-19T00:44:55;28.27;;;14.47;;
20445;SDS011;10382;49.140;9.234;2022-08-19T00:47:22;21.70;;;14.43;;
20445;SDS011;10382;49.140;9.234;2022-08-19T00:49:49;20.63;;;14.80;;
20445;SDS011;10382;49.140;9.234;2022-08-19T00:52:19;20.07;;;14.90;;
20445;SDS011;10382;49.140;9.234;2022-08-19T00:54:50;18.50;;;14.00;;
20445;SDS011;10382;49.140;9.234;2022-08-19T00:57:19;21.70;;;14.33;;
20445;SDS011;10382;49.140;9.234;2022-08-19T00:59:51;34.03;;;20.07;;
20445;SDS011;10382;49.140;9.234;2022-08-19T01:02:22;21.73;;;16.43;;
20445;SDS011;10382;49.140;9.234;2022-08-19T01:04:49;20.37;;;15.30;;
20445;SDS011;10382;49.140;9.234;2022-08-19T01:07:16;22.03;;;14.73;;
20445;SDS011;10382;49.140;9.234;2022-08-19T01:09:44;19.07;;;13.70;;
20445;SDS011;10382;49.140;9.234;2022-08-19T01:12:11;22.13;;;15.27;;
20445;SDS011;10382;49.140;9.234;2022-08-19T01:14:38;22.97;;;15.57;;
20445;SDS011;10382;49.140;9.234;2022-08-19T01:17:06;21.83;;;15.37;;
20445;SDS011;10382;49.140;9.234;2022-08-19T01:19:37;24.07;;;15.90;;
20445;SDS011;10382;49.140;9.234;2022-08-19T01:22:08;39.30;;;17.17;;
20445;SDS011;10382;49.140;9.234;2022-08-19T01:24:40;19.70;;;15.67;;
20445;SDS011;10382;49.140;9.234;2022-08-19T01:27:07;25.20;;;16.50;;
20445;SDS011;10382;49.140;9.234;2022-08-19T01:29:37;24.30;;;16.47;;
20445;SDS011;10382;49.140;9.234;2022-08-19T01:32:07;27.60;;;16.67;;
20445;SDS011;10382;49.140;9.234;2022-08-19T01:34:34;25.33;;;15.97;;
20445;SDS011;10382;49.140;9.234;2022-08-19T01:37:05;21.67;;;15.93;;
20445;SDS011;10382;49.140;9.234;2022-08-19T01:39:36;25.37;;;15.80;;
20445;SDS011;10382;49.140;9.234;2022-08-19T01:42:05;24.73;;;17.50;;
20445;SDS011;10382;49.140;9.234;2022-08-19T01:44:35;21.17;;;16.23;;
20445;SDS011;10382;49.140;9.234;2022-08-19T01:47:02;28.67;;;16.50;;
20445;SDS011;10382;49.140;9.234;2022-08-19T01:49:30;26.70;;;17.23;;
20445;SDS011;10382;49.140;9.234;2022-08-19T01:51:56;18.93;;;15.60;;
20445;SDS011;10382;49.140;9.234;2022-08-19T01:54:26;27.43;;;17.67;;
20445;SDS011;10382;49.140;9.234;2022-08-19T01:56:55;23.67;;;15.63;;
20445;SDS011;10382;49.140;9.234;2022-08-19T01:59:27;25.10;;;17.03;;
20445;SDS011;10382;49.140;9.234;2022-08-19T02:01:56;26.10;;;17.53;;
20445;SDS011;10382;49.140;9.234;2022-08-19T02:04:23;28.23;;;17.23;;
20445;SDS011;10382;49.140;9.234;2022-08-19T02:06:50;26.07;;;19.07;;
20445;SDS011;10382;49.140;9.234;2022-08-19T02:09:17;21.90;;;15.87;;
20445;SDS011;10382;49.140;9.234;2022-08-19T02:11:44;20.83;;;17.13;;
20445;SDS011;10382;49.140;9.234;2022-08-19T02:14:11;29.73;;;16.60;;
20445;SDS011;10382;49.140;9.234;2022-08-19T02:16:39;25.57;;;17.57;;
20445;SDS011;10382;49.140;9.234;2022-08-19T02:19:06;29.93;;;19.53;;
20445;SDS011;10382;49.140;9.234;2022-08-19T02:21:34;25.40;;;18.40;;
20445;SDS011;10382;49.140;9.234;2022-08-19T02:24:01;28.33;;;19.10;;
20445;SDS011;10382;49.140;9.234;2022-08-19T02:26:29;29.80;;;19.20;;
20445;SDS011;10382;49.140;9.234;2022-08-19T02:28:55;26.37;;;17.70;;
20445;SDS011;10382;49.140;9.234;2022-08-19T02:31:23;26.33;;;18.10;;
20445;SDS011;10382;49.140;9.234;2022-08-19T02:33:54;31.67;;;20.90;;
20445;SDS011;10382;49.140;9.234;2022-08-19T02:36:22;26.80;;;18.47;;
20445;SDS011;10382;49.140;9.234;2022-08-19T02:38:50;25.83;;;18.07;;
20445;SDS011;10382;49.140;9.234;2022-08-19T02:41:18;26.60;;;19.50;;
20445;SDS011;10382;49.140;9.234;2022-08-19T02:43:47;29.73;;;19.40;;
20445;SDS011;10382;49.140;9.234;2022-08-19T02:46:15;29.87;;;18.67;;
20445;SDS011;10382;49.140;9.234;2022-08-19T02:48:46;28.43;;;19.27;;
20445;SDS011;10382;49.140;9.234;2022-08-19T02:51:17;36.30;;;20.27;;
20445;SDS011;10382;49.140;9.234;2022-08-19T02:53:45;29.20;;;20.40;;
20445;SDS011;10382;49.140;9.234;2022-08-19T02:56:12;30.73;;;18.90;;
20445;SDS011;10382;49.140;9.234;2022-08-19T02:58:40;27.40;;;17.90;;
20445;SDS011;10382;49.140;9.234;2022-08-19T03:01:08;32.10;;;18.97;;
20445;SDS011;10382;49.140;9.234;2022-08-19T03:03:35;26.50;;;18.70;;
20445;SDS011;10382;49.140;9.234;2022-08-19T03:06:03;27.63;;;17.57;;
20445;SDS011;10382;49.140;9.234;2022-08-19T03:08:33;26.83;;;17.87;;
20445;SDS011;10382;49.140;9.234;2022-08-19T03:11:00;50.03;;;19.80;;
20445;SDS011;10382;49.140;9.234;2022-08-19T03:13:28;27.43;;;18.47;;
20445;SDS011;10382;49.140;9.234;2022-08-19T03:15:55;26.63;;;18.57;;
20445;SDS011;10382;49.140;9.234;2022-08-19T03:18:22;34.70;;;19.80;;
20445;SDS011;10382;49.140;9.234;2022-08-19T03:20:50;29.20;;;19.57;;
20445;SDS011;10382;49.140;9.234;2022-08-19T03:23:19;32.27;;;20.27;;
20445;SDS011;10382;49.140;9.234;2022-08-19T03:25:49;29.77;;;18.97;;
20445;SDS011;10382;49.140;9.234;2022-08-19T03:28:19;27.50;;;18.93;;
20445;SDS011;10382;49.140;9.234;2022-08-19T03:30:56;28.50;;;18.60;;
20445;SDS011;10382;49.140;9.234;2022-08-19T03:33:25;31.60;;;19.97;;
20445;SDS011;10382;49.140;9.234;2022-08-19T03:36:00;33.43;;;21.80;;
20445;SDS011;10382;49.140;9.234;2022-08-19T03:38:28;26.70;;;19.70;;
20445;SDS011;10382;49.140;9.234;2022-08-19T03:40:56;28.30;;;20.47;;
20445;SDS011;10382;49.140;9.234;2022-08-19T03:43:23;29.77;;;20.57;;
20445;SDS011;10382;49.140;9.234;2022-08-19T03:45:59;33.87;;;22.47;;
20445;SDS011;10382;49.140;9.234;2022-08-19T03:48:27;32.40;;;20.57;;
20445;SDS011;10382;49.140;9.234;2022-08-19T03:50:55;31.87;;;18.87;;
20445;SDS011;10382;49.140;9.234;2022-08-19T03:53:24;29.10;;;19.53;;
20445;SDS011;10382;49.140;9.234;2022-08-19T03:55:52;36.77;;;20.43;;
20445;SDS011;10382;49.140;9.234;2022-08-19T03:58:21;33.33;;;21.63;;
20445;SDS011;10382;49.140;9.234;2022-08-19T04:00:48;34.23;;;22.63;;
20445;SDS011;10382;49.140;9.234;2022-08-19T04:03:15;30.63;;;20.67;;
20445;SDS011;10382;49.140;9.234;2022-08-19T04:05:43;31.73;;;21.77;;
20445;SDS011;10382;49.140;9.234;2022-08-19T04:08:11;30.90;;;20.97;;
20445;SDS011;10382;49.140;9.234;2022-08-19T04:10:43;30.20;;;20.50;;
20445;SDS011;10382;49.140;9.234;2022-08-19T04:13:10;32.43;;;21.30;;
20445;SDS011;10382;49.140;9.234;2022-08-19T04:15:40;28.60;;;20.57;;
20445;SDS011;10382;49.140;9.234;2022-08-19T04:18:07;30.33;;;21.20;;
20445;SDS011;10382;49.140;9.234;2022-08-19T04:20:38;31.13;;;21.23;;
20445;SDS011;10382;49.140;9.234;2022-08-19T04:23:06;32.93;;;21.53;;
20445;SDS011;10382;49.140;9.234;2022-08-19T04:25:37;34.83;;;23.17;;
20445;SDS011;10382;49.140;9.234;2022-08-19T04:28:05;35.87;;;22.53;;
20445;SDS011;10382;49.140;9.234;2022-08-19T04:30:39;38.47;;;22.60;;
20445;SDS011;10382;49.140;9.234;2022-08-19T04:33:08;36.40;;;22.97;;
20445;SDS011;10382;49.140;9.234;2022-08-19T04:35:36;30.03;;;22.33;;
20445;SDS011;10382;49.140;9.234;2022-08-19T04:38:05;37.10;;;21.37;;
20445;SDS011;10382;49.140;9.234;2022-08-19T04:40:32;37.53;;;21.43;;
20445;SDS011;10382;49.140;9.234;2022-08-19T04:43:13;37.80;;;21.80;;
20445;SDS011;10382;49.140;9.234;2022-08-19T04:45:42;39.13;;;22.77;;
20445;SDS011;10382;49.140;9.234;2022-08-19T04:48:09;32.30;;;21.70;;
20445;SDS011;10382;49.140;9.234;2022-08-19T04:50:39;33.73;;;20.53;;
20445;SDS011;10382;49.140;9.234;2022-08-19T04:53:07;36.50;;;22.00;;
20445;SDS011;10382;49.140;9.234;2022-08-19T04:55:34;34.30;;;22.57;;
20445;SDS011;10382;49.140;9.234;2022-08-19T04:58:04;34.97;;;22.50;;
20445;SDS011;10382;49.140;9.234;2022-08-19T05:00:31;36.77;;;22.00;;
20445;SDS011;10382;49.140;9.234;2022-08-19T05:03:00;32.20;;;22.30;;
20445;SDS011;10382;49.140;9.234;2022-08-19T05:05:27;46.23;;;23.90;;
20445;SDS011;10382;49.140;9.234;2022-08-19T05:07:54;40.87;;;23.43;;
20445;SDS011;10382;49.140;9.234;2022-08-19T05:10:20;33.20;;;22.70;;
20445;SDS011;10382;49.140;9.234;2022-08-19T05:12:47;35.73;;;21.70;;
20445;SDS011;10382;49.140;9.234;2022-08-19T05:15:14;38.07;;;23.87;;
20445;SDS011;10382;49.140;9.234;2022-08-19T05:17:41;35.43;;;23.23;;
20445;SDS011;10382;49.140;9.234;2022-08-19T05:20:30;39.80;;;22.97;;
20445;SDS011;10382;49.140;9.234;2022-08-19T05:23:14;31.40;;;21.57;;
20445;SDS011;10382;49.140;9.234;2022-08-19T05:25:42;36.13;;;22.87;;
20445;SDS011;10382;49.140;9.234;2022-08-19T05:28:09;39.07;;;21.87;;
20445;SDS011;10382;49.140;9.234;2022-08-19T05:30:36;39.63;;;23.43;;
20445;SDS011;10382;49.140;9.234;2022-08-19T05:33:03;32.43;;;22.60;;
20445;SDS011;10382;49.140;9.234;2022-08-19T05:35:31;30.43;;;19.80;;
20445;SDS011;10382;49.140;9.234;2022-08-19T05:37:58;36.17;;;23.13;;
20445;SDS011;10382;49.140;9.234;2022-08-19T05:40:25;35.03;;;20.63;;
20445;SDS011;10382;49.140;9.234;2022-08-19T05:42:52;37.63;;;21.83;;
20445;SDS011;10382;49.140;9.234;2022-08-19T05:45:19;35.57;;;21.97;;
20445;SDS011;10382;49.140;9.234;2022-08-19T05:47:46;43.67;;;24.83;;
20445;SDS011;10382;49.140;9.234;2022-08-19T05:50:14;39.87;;;21.47;;
20445;SDS011;10382;49.140;9.234;2022-08-19T05:52:43;35.80;;;23.37;;
20445;SDS011;10382;49.140;9.234;2022-08-19T05:55:11;32.40;;;22.83;;
20445;SDS011;10382;49.140;9.234;2022-08-19T05:57:38;36.47;;;24.87;;
20445;SDS011;10382;49.140;9.234;2022-08-19T06:00:06;30.60;;;21.67;;
20445;SDS011;10382;49.140;9.234;2022-08-19T06:02:35;36.73;;;24.03;;
20445;SDS011;10382;49.140;9.234;2022-08-19T06:05:03;39.87;;;22.83;;
20445;SDS011;10382;49.140;9.234;2022-08-19T06:07:34;41.63;;;22.20;;
20445;SDS011;10382;49.140;9.234;2022-08-19T06:10:02;34.33;;;22.00;;
20445;SDS011;10382;49.140;9.234;2022-08-19T06:12:30;36.43;;;22.67;;
20445;SDS011;10382;49.140;9.234;2022-08-19T06:14:58;41.27;;;23.73;;
20445;SDS011;10382;49.140;9.234;2022-08-19T06:17:25;39.83;;;24.60;;
20445;SDS011;10382;49.140;9.234;2022-08-19T06:19:52;39.47;;;22.80;;
20445;SDS011;10382;49.140;9.234;2022-08-19T06:22:19;32.77;;;22.10;;
20445;SDS011;10382;49.140;9.234;2022-08-19T06:24:46;42.83;;;23.50;;
20445;SDS011;10382;49.140;9.234;2022-08-19T06:27:14;43.63;;;25.87;;
20445;SDS011;10382;49.140;9.234;2022-08-19T06:29:41;36.20;;;23.40;;
20445;SDS011;10382;49.140;9.234;2022-08-19T06:32:08;43.67;;;21.57;;
20445;SDS011;10382;49.140;9.234;2022-08-19T06:34:36;37.43;;;23.37;;
20445;SDS011;10382;49.140;9.234;2022-08-19T06:37:03;39.67;;;21.47;;
20445;SDS011;10382;49.140;9.234;2022-08-19T06:39:32;35.87;;;22.70;;
20445;SDS011;10382;49.140;9.234;2022-08-19T06:42:02;41.53;;;22.20;;
20445;SDS011;10382;49.140;9.234;2022-08-19T06:44:34;36.83;;;21.93;;
20445;SDS011;10382;49.140;9.234;2022-08-19T06:47:03;32.23;;;21.60;;
20445;SDS011;10382;49.140;9.234;2022-08-19T06:49:31;40.40;;;21.90;;
20445;SDS011;10382;49.140;9.234;2022-08-19T06:51:59;56.53;;;22.67;;
20445;SDS011;10382;49.140;9.234;2022-08-19T06:54:26;45.40;;;22.67;;
20445;SDS011;10382;49.140;9.234;2022-08-19T06:56:54;35.70;;;20.60;;
20445;SDS011;10382;49.140;9.234;2022-08-19T06:59:22;41.00;;;21.40;;
20445;SDS011;10382;49.140;9.234;2022-08-19T07:01:53;31.90;;;19.77;;
20445;SDS011;10382;49.140;9.234;2022-08-19T07:04:22;39.20;;;21.17;;
20445;SDS011;10382;49.140;9.234;2022-08-19T07:06:56;35.77;;;20.70;;
20445;SDS011;10382;49.140;9.234;2022-08-19T07:09:25;35.73;;;19.27;;
20445;SDS011;10382;49.140;9.234;2022-08-19T07:11:53;38.77;;;20.70;;
20445;SDS011;10382;49.140;9.234;2022-08-19T07:14:22;34.17;;;20.87;;
20445;SDS011;10382;49.140;9.234;2022-08-19T07:16:50;31.87;;;19.67;;
20445;SDS011;10382;49.140;9.234;2022-08-19T07:19:21;34.27;;;19.53;;
20445;SDS011;10382;49.140;9.234;2022-08-19T07:21:51;28.97;;;18.77;;
20445;SDS011;10382;49.140;9.234;2022-08-19T07:24:18;31.50;;;19.90;;
20445;SDS011;10382;49.140;9.234;2022-08-19T07:26:49;31.27;;;20.33;;
20445;SDS011;10382;49.140;9.234;2022-08-19T07:29:18;35.37;;;18.63;;
20445;SDS011;10382;49.140;9.234;2022-08-19T07:31:48;39.93;;;19.43;;
20445;SDS011;10382;49.140;9.234;2022-08-19T07:34:16;28.47;;;18.17;;
20445;SDS011;10382;49.140;9.234;2022-08-19T07:36:45;26.87;;;17.37;;
20445;SDS011;10382;49.140;9.234;2022-08-19T07:39:13;33.33;;;17.53;;
20445;SDS011;10382;49.140;9.234;2022-08-19T07:41:41;29.73;;;16.87;;
20445;SDS011;10382;49.140;9.234;2022-08-19T07:44:10;30.80;;;15.80;;
20445;SDS011;10382;49.140;9.234;2022-08-19T07:46:39;30.40;;;16.60;;
20445;SDS011;10382;49.140;9.234;2022-08-19T07:49:09;29.83;;;13.63;;
20445;SDS011;10382;49.140;9.234;2022-08-19T07:51:46;28.73;;;14.77;;
20445;SDS011;10382;49.140;9.234;2022-08-19T07:54:14;30.97;;;14.77;;
20445;SDS011;10382;49.140;9.234;2022-08-19T07:56:41;28.73;;;16.70;;
20445;SDS011;10382;49.140;9.234;2022-08-19T07:59:08;27.27;;;13.77;;
20445;SDS011;10382;49.140;9.234;2022-08-19T08:01:35;24.03;;;13.50;;
20445;SDS011;10382;49.140;9.234;2022-08-19T08:04:05;22.47;;;13.87;;
20445;SDS011;10382;49.140;9.234;2022-08-19T08:06:52;28.47;;;15.73;;
20445;SDS011;10382;49.140;9.234;2022-08-19T08:09:37;24.50;;;14.80;;
20445;SDS011;10382;49.140;9.234;2022-08-19T08:12:08;62.60;;;16.83;;
20445;SDS011;10382;49.140;9.234;2022-08-19T08:14:37;27.80;;;14.83;;
20445;SDS011;10382;49.140;9.234;2022-08-19T08:17:07;29.07;;;15.10;;
20445;SDS011;10382;49.140;9.234;2022-08-19T08:19:35;25.23;;;13.97;;
20445;SDS011;10382;49.140;9.234;2022-08-19T08:22:04;31.10;;;15.03;;
20445;SDS011;10382;49.140;9.234;2022-08-19T08:24:32;25.57;;;14.93;;
20445;SDS011;10382;49.140;9.234;2022-08-19T08:27:01;25.10;;;14.37;;
20445;SDS011;10382;49.140;9.234;2022-08-19T08:29:29;26.43;;;16.03;;
20445;SDS011;10382;49.140;9.234;2022-08-19T08:31:58;30.17;;;15.33;;
20445;SDS011;10382;49.140;9.234;2022-08-19T08:34:25;27.93;;;15.33;;
20445;SDS011;10382;49.140;9.234;2022-08-19T08:36:51;19.73;;;13.03;;
20445;SDS011;10382;49.140;9.234;2022-08-19T08:39:20;27.77;;;15.43;;
20445;SDS011;10382;49.140;9.234;2022-08-19T08:41:50;25.53;;;14.90;;
20445;SDS011;10382;49.140;9.234;2022-08-19T08:44:27;28.53;;;14.20;;
20445;SDS011;10382;49.140;9.234;2022-08-19T08:47:09;26.03;;;14.30;;
20445;SDS011;10382;49.140;9.234;2022-08-19T08:49:40;23.87;;;15.20;;
20445;SDS011;10382;49.140;9.234;2022-08-19T08:52:17;35.70;;;16.23;;
20445;SDS011;10382;49.140;9.234;2022-08-19T08:54:49;24.87;;;15.17;;
20445;SDS011;10382;49.140;9.234;2022-08-19T08:57:20;30.33;;;14.60;;
20445;SDS011;10382;49.140;9.234;2022-08-19T08:59:53;25.67;;;14.73;;
20445;SDS011;10382;49.140;9.234;2022-08-19T09:02:23;26.53;;;13.80;;
20445;SDS011;10382;49.140;9.234;2022-08-19T09:04:50;26.53;;;16.00;;
20445;SDS011;10382;49.140;9.234;2022-08-19T09:07:21;35.87;;;15.00;;
20445;SDS011;10382;49.140;9.234;2022-08-19T09:09:56;19.50;;;13.27;;
20445;SDS011;10382;49.140;9.234;2022-08-19T09:12:38;22.20;;;13.03;;
20445;SDS011;10382;49.140;9.234;2022-08-19T09:15:17;25.27;;;15.00;;
20445;SDS011;10382;49.140;9.234;2022-08-19T09:17:48;22.33;;;12.67;;
20445;SDS011;10382;49.140;9.234;2022-08-19T09:20:17;23.60;;;13.33;;
20445;SDS011;10382;49.140;9.234;2022-08-19T09:22:46;28.30;;;14.10;;
20445;SDS011;10382;49.140;9.234;2022-08-19T09:25:16;26.57;;;12.63;;
20445;SDS011;10382;49.140;9.234;2022-08-19T09:27:46;17.30;;;12.37;;
20445;SDS011;10382;49.140;9.234;2022-08-19T09:30:15;28.53;;;12.53;;
20445;SDS011;10382;49.140;9.234;2022-08-19T09:32:43;24.83;;;12.50;;
20445;SDS011;10382;49.140;9.234;2022-08-19T09:35:11;22.47;;;12.23;;
20445;SDS011;10382;49.140;9.234;2022-08-19T09:37:39;21.40;;;11.53;;
20445;SDS011;10382;49.140;9.234;2022-08-19T09:40:08;40.17;;;14.47;;
20445;SDS011;10382;49.140;9.234;2022-08-19T09:42:37;30.53;;;11.73;;
20445;SDS011;10382;49.140;9.234;2022-08-19T09:45:05;31.73;;;12.10;;
20445;SDS011;10382;49.140;9.234;2022-08-19T09:47:32;21.07;;;12.30;;
20445;SDS011;10382;49.140;9.234;2022-08-19T09:50:03;19.50;;;11.63;;
20445;SDS011;10382;49.140;9.234;2022-08-19T09:52:32;28.00;;;13.20;;
20445;SDS011;10382;49.140;9.234;2022-08-19T09:55:01;17.53;;;11.80;;
20445;SDS011;10382;49.140;9.234;2022-08-19T09:57:28;19.07;;;12.20;;
20445;SDS011;10382;49.140;9.234;2022-08-19T09:59:57;22.47;;;11.43;;
20445;SDS011;10382;49.140;9.234;2022-08-19T10:02:24;23.07;;;12.17;;
20445;SDS011;10382;49.140;9.234;2022-08-19T10:04:51;22.53;;;11.40;;
20445;SDS011;10382;49.140;9.234;2022-08-19T10:07:35;23.60;;;12.40;;
20445;SDS011;10382;49.140;9.234;2022-08-19T10:10:03;27.70;;;13.00;;
20445;SDS011;10382;49.140;9.234;2022-08-19T10:12:32;18.67;;;10.90;;
20445;SDS011;10382;49.140;9.234;2022-08-19T10:15:01;20.07;;;11.10;;
20445;SDS011;10382;49.140;9.234;2022-08-19T10:17:28;16.53;;;10.07;;
20445;SDS011;10382;49.140;9.234;2022-08-19T10:19:58;22.33;;;10.13;;
20445;SDS011;10382;49.140;9.234;2022-08-19T10:22:25;16.90;;;9.97;;
20445;SDS011;10382;49.140;9.234;2022-08-19T10:24:52;23.70;;;9.30;;
20445;SDS011;10382;49.140;9.234;2022-08-19T10:27:19;19.60;;;8.37;;
20445;SDS011;10382;49.140;9.234;2022-08-19T10:29:46;16.87;;;7.87;;
20445;SDS011;10382;49.140;9.234;2022-08-19T10:32:18;11.67;;;6.97;;
20445;SDS011;10382;49.140;9.234;2022-08-19T10:34:49;14.20;;;7.50;;
20445;SDS011;10382;49.140;9.234;2022-08-19T10:37:17;16.20;;;7.27;;
20445;SDS011;10382;49.140;9.234;2022-08-19T10:39:45;22.20;;;8.60;;
20445;SDS011;10382;49.140;9.234;2022-08-19T10:42:12;23.33;;;8.80;;
20445;SDS011;10382;49.140;9.234;2022-08-19T10:44:41;20.70;;;8.30;;
20445;SDS011;10382;49.140;9.234;2022-08-19T10:47:09;17.37;;;7.70;;
20445;SDS011;10382;49.140;9.234;2022-08-19T10:49:37;21.60;;;8.73;;
20445;SDS011;10382;49.140;9.234;2022-08-19T10:52:24;18.77;;;7.57;;
20445;SDS011;10382;49.140;9.234;2022-08-19T10:54:59;19.17;;;7.93;;
20445;SDS011;10382;49.140;9.234;2022-08-19T10:57:44;17.60;;;7.17;;
20445;SDS011;10382;49.140;9.234;2022-08-19T11:00:11;27.80;;;9.70;;
20445;SDS011;10382;49.140;9.234;2022-08-19T11:02:39;19.57;;;7.03;;
20445;SDS011;10382;49.140;9.234;2022-08-19T11:05:08;18.67;;;7.87;;
20445;SDS011;10382;49.140;9.234;2022-08-19T11:07:37;19.33;;;8.43;;
20445;SDS011;10382;49.140;9.234;2022-08-19T11:10:04;16.80;;;7.63;;
20445;SDS011;10382;49.140;9.234;2022-08-19T11:12:32;14.03;;;6.20;;
20445;SDS011;10382;49.140;9.234;2022-08-19T11:14:59;24.57;;;8.90;;
20445;SDS011;10382;49.140;9.234;2022-08-19T11:17:26;18.63;;;7.37;;
20445;SDS011;10382;49.140;9.234;2022-08-19T11:19:56;22.90;;;6.80;;
20445;SDS011;10382;49.140;9.234;2022-08-19T11:22:27;20.67;;;7.57;;
20445;SDS011;10382;49.140;9.234;2022-08-19T11:24:54;22.43;;;10.40;;
20445;SDS011;10382;49.140;9.234;2022-08-19T11:27:21;20.27;;;8.70;;
20445;SDS011;10382;49.140;9.234;2022-08-19T11:29:48;15.00;;;6.80;;
20445;SDS011;10382;49.140;9.234;2022-08-19T11:32:15;15.63;;;7.77;;
20445;SDS011;10382;49.140;9.234;2022-08-19T11:34:42;14.07;;;7.47;;
20445;SDS011;10382;49.140;9.234;2022-08-19T11:37:09;19.93;;;7.47;;
20445;SDS011;10382;49.140;9.234;2022-08-19T11:39:38;17.63;;;7.80;;
20445;SDS011;10382;49.140;9.234;2022-08-19T11:42:05;13.40;;;6.50;;
20445;SDS011;10382;49.140;9.234;2022-08-19T11:44:53;21.47;;;8.80;;
20445;SDS011;10382;49.140;9.234;2022-08-19T11:47:20;15.37;;;6.83;;
20445;SDS011;10382;49.140;9.234;2022-08-19T11:49:47;15.23;;;6.67;;
20445;SDS011;10382;49.140;9.234;2022-08-19T11:52:14;16.37;;;7.13;;
20445;SDS011;10382;49.140;9.234;2022-08-19T11:54:42;22.13;;;7.80;;
20445;SDS011;10382;49.140;9.234;2022-08-19T11:57:09;15.90;;;6.73;;
20445;SDS011;10382;49.140;9.234;2022-08-19T11:59:36;12.77;;;6.60;;
20445;SDS011;10382;49.140;9.234;2022-08-19T12:02:03;15.73;;;6.63;;
20445;SDS011;10382;49.140;9.234;2022-08-19T12:04:30;18.93;;;7.60;;
20445;SDS011;10382;49.140;9.234;2022-08-19T12:06:57;14.60;;;5.60;;
20445;SDS011;10382;49.140;9.234;2022-08-19T12:09:24;13.93;;;4.63;;
20445;SDS011;10382;49.140;9.234;2022-08-19T12:11:52;14.07;;;6.20;;
20445;SDS011;10382;49.140;9.234;2022-08-19T12:14:19;17.33;;;7.60;;
20445;SDS011;10382;49.140;9.234;2022-08-19T12:16:46;24.73;;;7.57;;
20445;SDS011;10382;49.140;9.234;2022-08-19T12:19:13;8.90;;;5.13;;
20445;SDS011;10382;49.140;9.234;2022-08-19T12:21:40;38.30;;;9.10;;
20445;SDS011;10382;49.140;9.234;2022-08-19T12:24:07;27.53;;;7.70;;
20445;SDS011;10382;49.140;9.234;2022-08-19T12:26:34;27.13;;;7.33;;
20445;SDS011;10382;49.140;9.234;2022-08-19T12:29:03;12.93;;;6.10;;
20445;SDS011;10382;49.140;9.234;2022-08-19T12:31:30;15.03;;;6.27;;
20445;SDS011;10382;49.140;9.234;2022-08-19T12:33:57;23.03;;;8.60;;
20445;SDS011;10382;49.140;9.234;2022-08-19T12:36:27;18.97;;;6.93;;
20445;SDS011;10382;49.140;9.234;2022-08-19T12:38:54;14.30;;;5.13;;
20445;SDS011;10382;49.140;9.234;2022-08-19T12:41:24;21.77;;;6.77;;
20445;SDS011;10382;49.140;9.234;2022-08-19T12:43:52;24.03;;;8.73;;
20445;SDS011;10382;49.140;9.234;2022-08-19T12:46:20;36.17;;;7.47;;
20445;SDS011;10382;49.140;9.234;2022-08-19T12:48:47;26.60;;;8.40;;
20445;SDS011;10382;49.140;9.234;2022-08-19T12:51:16;24.47;;;7.67;;
20445;SDS011;10382;49.140;9.234;2022-08-19T12:53:45;14.27;;;6.53;;
20445;SDS011;10382;49.140;9.234;2022-08-19T12:56:12;18.47;;;6.87;;
20445;SDS011;10382;49.140;9.234;2022-08-19T12:58:40;18.70;;;5.90;;
20445;SDS011;10382;49.140;9.234;2022-08-19T13:01:09;17.97;;;7.33;;
20445;SDS011;10382;49.140;9.234;2022-08-19T13:03:39;19.30;;;7.07;;
20445;SDS011;10382;49.140;9.234;2022-08-19T13:06:06;15.07;;;5.80;;
20445;SDS011;10382;49.140;9.234;2022-08-19T13:08:34;17.47;;;6.80;;
20445;SDS011;10382;49.140;9.234;2022-08-19T13:11:08;19.30;;;6.80;;
20445;SDS011;10382;49.140;9.234;2022-08-19T13:13:37;20.80;;;7.30;;
20445;SDS011;10382;49.140;9.234;2022-08-19T13:16:06;18.13;;;7.00;;
20445;SDS011;10382;49.140;9.234;2022-08-19T13:18:34;29.87;;;9.13;;
20445;SDS011;10382;49.140;9.234;2022-08-19T13:21:03;30.20;;;10.37;;
20445;SDS011;10382;49.140;9.234;2022-08-19T13:23:31;20.30;;;7.60;;
20445;SDS011;10382;49.140;9.234;2022-08-19T13:25:59;20.03;;;6.93;;
20445;SDS011;10382;49.140;9.234;2022-08-19T13:28:27;22.20;;;8.37;;
20445;SDS011;10382;49.140;9.234;2022-08-19T13:31:15;16.67;;;6.83;;
20445;SDS011;10382;49.140;9.234;2022-08-19T13:34:08;22.60;;;8.37;;
20445;SDS011;10382;49.140;9.234;2022-08-19T13:36:37;15.33;;;6.37;;
20445;SDS011;10382;49.140;9.234;2022-08-19T13:39:05;19.07;;;7.53;;
20445;SDS011;10382;49.140;9.234;2022-08-19T13:41:33;33.27;;;14.00;;
20445;SDS011;10382;49.140;9.234;2022-08-19T13:44:01;21.67;;;8.97;;
20445;SDS011;10382;49.140;9.234;2022-08-19T13:46:29;19.73;;;8.03;;
20445;SDS011;10382;49.140;9.234;2022-08-19T13:48:56;17.37;;;7.60;;
20445;SDS011;10382;49.140;9.234;2022-08-19T13:51:23;31.93;;;10.70;;
20445;SDS011;10382;49.140;9.234;2022-08-19T13:53:51;20.17;;;8.07;;
20445;SDS011;10382;49.140;9.234;2022-08-19T13:56:19;23.87;;;8.50;;
20445;SDS011;10382;49.140;9.234;2022-08-19T13:58:46;18.23;;;7.63;;
20445;SDS011;10382;49.140;9.234;2022-08-19T14:01:17;16.70;;;7.00;;
20445;SDS011;10382;49.140;9.234;2022-08-19T14:03:45;20.23;;;8.57;;
20445;SDS011;10382;49.140;9.234;2022-08-19T14:06:12;21.03;;;7.67;;
20445;SDS011;10382;49.140;9.234;2022-08-19T14:08:39;16.93;;;6.73;;
20445;SDS011;10382;49.140;9.234;2022-08-19T14:11:08;21.23;;;8.93;;
20445;SDS011;10382;49.140;9.234;2022-08-19T14:13:35;18.20;;;7.07;;
20445;SDS011;10382;49.140;9.234;2022-08-19T14:16:05;19.27;;;7.40;;
20445;SDS011;10382;49.140;9.234;2022-08-19T14:18:34;13.60;;;6.57;;
20445;SDS011;10382;49.140;9.234;2022-08-19T14:21:01;18.43;;;7.07;;
20445;SDS011;10382;49.140;9.234;2022-08-19T14:23:29;19.97;;;7.03;;
20445;SDS011;10382;49.140;9.234;2022-08-19T14:26:02;19.47;;;7.47;;
20445;SDS011;10382;49.140;9.234;2022-08-19T14:28:32;16.20;;;7.33;;
20445;SDS011;10382;49.140;9.234;2022-08-19T14:30:58;21.23;;;7.17;;
20445;SDS011;10382;49.140;9.234;2022-08-19T14:33:25;26.80;;;8.13;;
20445;SDS011;10382;49.140;9.234;2022-08-19T14:35:52;22.33;;;8.37;;